sensor_id;sensor_type;location;lat;lon;timestamp;temperature;humidity
16060;DHT22;8134;49.552;7.632;2022-07-18T08:44:23;21.70;80.70
16060;DHT22;8134;49.552;7.632;2022-07-18T08:46:49;21.80;82.40
16060;DHT22;8134;49.552;7.632;2022-07-18T08:49:15;21.90;83.10
16060;DHT22;8134;49.552;7.632;2022-07-18T08:51:41;22.00;86.00
16060;DHT22;8134;49.552;7.632;2022-07-18T08:54:07;22.10;86.30
16060;DHT22;8134;49.552;7.632;2022-07-18T08:56:33;22.20;80.50
16060;DHT22;8134;49.552;7.632;2022-07-18T08:58:59;22.30;78.40
16060;DHT22;8134;49.552;7.632;2022-07-18T09:01:25;22.50;79.40
16060;DHT22;8134;49.552;7.632;2022-07-18T09:03:52;22.60;79.50
16060;DHT22;8134;49.552;7.632;2022-07-18T09:06:41;22.70;76.00
16060;DHT22;8134;49.552;7.632;2022-07-18T09:09:06;22.70;73.60
16060;DHT22;8134;49.552;7.632;2022-07-18T09:11:32;22.80;73.50
16060;DHT22;8134;49.552;7.632;2022-07-18T09:13:58;22.90;73.30
16060;DHT22;8134;49.552;7.632;2022-07-18T09:16:23;23.00;70.90
16060;DHT22;8134;49.552;7.632;2022-07-18T09:18:49;23.10;71.90
16060;DHT22;8134;49.552;7.632;2022-07-18T09:21:15;23.20;70.80
16060;DHT22;8134;49.552;7.632;2022-07-18T09:23:44;23.30;72.10
16060;DHT22;8134;49.552;7.632;2022-07-18T09:26:10;23.40;68.10
16060;DHT22;8134;49.552;7.632;2022-07-18T09:28:52;23.50;68.60
16060;DHT22;8134;49.552;7.632;2022-07-18T09:31:19;23.60;67.80
16060;DHT22;8134;49.552;7.632;2022-07-18T09:34:01;23.70;65.90
16060;DHT22;8134;49.552;7.632;2022-07-18T09:36:27;23.80;64.10
16060;DHT22;8134;49.552;7.632;2022-07-18T09:38:53;24.00;65.20
16060;DHT22;8134;49.552;7.632;2022-07-18T09:41:25;24.10;62.40
16060;DHT22;8134;49.552;7.632;2022-07-18T09:43:50;24.20;62.60
16060;DHT22;8134;49.552;7.632;2022-07-18T09:46:16;24.40;61.80
16060;DHT22;8134;49.552;7.632;2022-07-18T09:48:42;24.50;61.30
16060;DHT22;8134;49.552;7.632;2022-07-18T09:51:07;24.50;61.50
16060;DHT22;8134;49.552;7.632;2022-07-18T09:55:59;24.60;62.70
16060;DHT22;8134;49.552;7.632;2022-07-18T09:58:26;24.70;61.70
16060;DHT22;8134;49.552;7.632;2022-07-18T10:00:52;24.70;59.50
16060;DHT22;8134;49.552;7.632;2022-07-18T10:03:19;24.70;60.60
16060;DHT22;8134;49.552;7.632;2022-07-18T10:05:45;24.70;60.50
16060;DHT22;8134;49.552;7.632;2022-07-18T10:08:13;24.80;59.90
16060;DHT22;8134;49.552;7.632;2022-07-18T10:10:39;24.70;62.40
16060;DHT22;8134;49.552;7.632;2022-07-18T10:13:05;24.90;59.10
16060;DHT22;8134;49.552;7.632;2022-07-18T10:15:33;25.10;57.60
16060;DHT22;8134;49.552;7.632;2022-07-18T10:17:59;25.20;59.00
16060;DHT22;8134;49.552;7.632;2022-07-18T10:20:27;25.30;57.70
16060;DHT22;8134;49.552;7.632;2022-07-18T10:22:54;25.30;57.90
16060;DHT22;8134;49.552;7.632;2022-07-18T10:25:21;25.50;57.70
16060;DHT22;8134;49.552;7.632;2022-07-18T11:14:57;26.10;55.90
16060;DHT22;8134;49.552;7.632;2022-07-18T11:17:53;26.40;55.90
16060;DHT22;8134;49.552;7.632;2022-07-18T11:22:49;26.70;54.40
16060;DHT22;8134;49.552;7.632;2022-07-18T12:18:28;28.90;49.40
16060;DHT22;8134;49.552;7.632;2022-07-18T12:21:05;29.00;48.80
16060;DHT22;8134;49.552;7.632;2022-07-18T12:23:31;29.10;49.20
16060;DHT22;8134;49.552;7.632;2022-07-18T12:25:57;29.30;49.90
16060;DHT22;8134;49.552;7.632;2022-07-18T12:28:27;29.30;50.30
16060;DHT22;8134;49.552;7.632;2022-07-18T12:30:53;29.30;51.20
16060;DHT22;8134;49.552;7.632;2022-07-18T12:33:18;29.20;50.50
16060;DHT22;8134;49.552;7.632;2022-07-18T12:35:44;29.20;50.40
16060;DHT22;8134;49.552;7.632;2022-07-18T12:38:11;29.20;50.50
16060;DHT22;8134;49.552;7.632;2022-07-18T12:40:44;29.30;50.10
16060;DHT22;8134;49.552;7.632;2022-07-18T12:43:11;29.30;49.70
16060;DHT22;8134;49.552;7.632;2022-07-18T12:45:37;29.40;51.20
16060;DHT22;8134;49.552;7.632;2022-07-18T12:48:03;29.50;49.70
16060;DHT22;8134;49.552;7.632;2022-07-18T12:50:29;29.50;49.60
16060;DHT22;8134;49.552;7.632;2022-07-18T12:52:56;29.60;49.30
16060;DHT22;8134;49.552;7.632;2022-07-18T12:55:21;29.60;47.90
16060;DHT22;8134;49.552;7.632;2022-07-18T12:57:48;29.80;48.70
16060;DHT22;8134;49.552;7.632;2022-07-18T13:00:14;29.90;48.90
16060;DHT22;8134;49.552;7.632;2022-07-18T13:02:41;29.90;46.50
16060;DHT22;8134;49.552;7.632;2022-07-18T13:05:07;30.00;48.80
16060;DHT22;8134;49.552;7.632;2022-07-18T13:07:32;30.00;48.30
16060;DHT22;8134;49.552;7.632;2022-07-18T13:09:58;30.10;47.50
16060;DHT22;8134;49.552;7.632;2022-07-18T13:12:23;30.20;46.80
16060;DHT22;8134;49.552;7.632;2022-07-18T13:14:49;30.40;47.20
16060;DHT22;8134;49.552;7.632;2022-07-18T13:17:14;30.50;47.00
16060;DHT22;8134;49.552;7.632;2022-07-18T13:19:40;30.70;46.90
16060;DHT22;8134;49.552;7.632;2022-07-18T13:22:05;30.70;47.80
16060;DHT22;8134;49.552;7.632;2022-07-18T13:24:31;30.80;49.10
16060;DHT22;8134;49.552;7.632;2022-07-18T13:26:56;30.90;45.40
16060;DHT22;8134;49.552;7.632;2022-07-18T13:29:22;31.00;46.60
16060;DHT22;8134;49.552;7.632;2022-07-18T13:31:48;31.00;47.20
16060;DHT22;8134;49.552;7.632;2022-07-18T13:34:15;31.00;46.00
16060;DHT22;8134;49.552;7.632;2022-07-18T13:36:41;30.90;48.00
16060;DHT22;8134;49.552;7.632;2022-07-18T13:39:07;30.90;47.40
16060;DHT22;8134;49.552;7.632;2022-07-18T13:41:32;31.00;46.40
16060;DHT22;8134;49.552;7.632;2022-07-18T13:43:58;31.20;46.10
16060;DHT22;8134;49.552;7.632;2022-07-18T13:46:24;31.30;47.40
16060;DHT22;8134;49.552;7.632;2022-07-18T13:48:49;31.40;47.40
16060;DHT22;8134;49.552;7.632;2022-07-18T13:51:15;31.40;46.40
16060;DHT22;8134;49.552;7.632;2022-07-18T13:53:40;31.30;45.20
16060;DHT22;8134;49.552;7.632;2022-07-18T13:56:06;31.60;45.80
16060;DHT22;8134;49.552;7.632;2022-07-18T13:58:31;31.60;45.80
16060;DHT22;8134;49.552;7.632;2022-07-18T14:00:57;31.60;45.70
16060;DHT22;8134;49.552;7.632;2022-07-18T14:03:22;31.50;46.30
16060;DHT22;8134;49.552;7.632;2022-07-18T14:05:48;31.60;45.60
16060;DHT22;8134;49.552;7.632;2022-07-18T14:08:13;31.60;44.90
16060;DHT22;8134;49.552;7.632;2022-07-18T14:10:39;31.60;45.40
16060;DHT22;8134;49.552;7.632;2022-07-18T14:13:04;31.70;46.60
16060;DHT22;8134;49.552;7.632;2022-07-18T14:15:30;31.70;45.20
16060;DHT22;8134;49.552;7.632;2022-07-18T14:17:56;31.80;46.60
16060;DHT22;8134;49.552;7.632;2022-07-18T14:20:22;31.90;46.10
16060;DHT22;8134;49.552;7.632;2022-07-18T14:22:47;31.90;45.00
16060;DHT22;8134;49.552;7.632;2022-07-18T14:25:14;31.90;46.20
16060;DHT22;8134;49.552;7.632;2022-07-18T14:27:40;31.90;45.00
16060;DHT22;8134;49.552;7.632;2022-07-18T14:30:07;32.00;46.20
16060;DHT22;8134;49.552;7.632;2022-07-18T14:32:33;32.10;45.50
16060;DHT22;8134;49.552;7.632;2022-07-18T14:34:58;32.10;45.20
16060;DHT22;8134;49.552;7.632;2022-07-18T14:37:24;32.10;44.20
16060;DHT22;8134;49.552;7.632;2022-07-18T14:39:50;32.20;44.30
16060;DHT22;8134;49.552;7.632;2022-07-18T14:42:16;32.20;44.60
16060;DHT22;8134;49.552;7.632;2022-07-18T14:44:41;32.30;44.50
16060;DHT22;8134;49.552;7.632;2022-07-18T14:47:07;32.30;44.00
16060;DHT22;8134;49.552;7.632;2022-07-18T14:49:33;32.40;44.00
16060;DHT22;8134;49.552;7.632;2022-07-18T14:51:59;32.40;42.80
16060;DHT22;8134;49.552;7.632;2022-07-18T14:54:26;32.50;44.10
16060;DHT22;8134;49.552;7.632;2022-07-18T14:56:52;32.60;45.10
16060;DHT22;8134;49.552;7.632;2022-07-18T14:59:19;32.70;43.90
16060;DHT22;8134;49.552;7.632;2022-07-18T15:01:44;32.90;42.90
16060;DHT22;8134;49.552;7.632;2022-07-18T15:04:10;32.90;41.60
16060;DHT22;8134;49.552;7.632;2022-07-18T15:06:37;32.80;41.00
16060;DHT22;8134;49.552;7.632;2022-07-18T15:09:03;33.00;42.70
16060;DHT22;8134;49.552;7.632;2022-07-18T15:11:28;33.00;43.30
16060;DHT22;8134;49.552;7.632;2022-07-18T15:13:55;33.20;43.70
16060;DHT22;8134;49.552;7.632;2022-07-18T15:16:21;33.20;43.80
16060;DHT22;8134;49.552;7.632;2022-07-18T15:18:46;33.10;44.10
16060;DHT22;8134;49.552;7.632;2022-07-18T15:21:12;33.10;44.20
16060;DHT22;8134;49.552;7.632;2022-07-18T15:23:38;33.10;44.50
16060;DHT22;8134;49.552;7.632;2022-07-18T15:26:04;33.10;44.10
16060;DHT22;8134;49.552;7.632;2022-07-18T15:28:29;33.10;43.30
16060;DHT22;8134;49.552;7.632;2022-07-18T15:30:55;33.20;42.90
16060;DHT22;8134;49.552;7.632;2022-07-18T15:33:20;33.20;43.30
16060;DHT22;8134;49.552;7.632;2022-07-18T15:35:46;33.20;42.80
16060;DHT22;8134;49.552;7.632;2022-07-18T15:38:12;33.20;43.60
16060;DHT22;8134;49.552;7.632;2022-07-18T15:40:37;33.30;43.30
16060;DHT22;8134;49.552;7.632;2022-07-18T16:17:20;32.50;43.50
16060;DHT22;8134;49.552;7.632;2022-07-18T16:19:46;32.50;43.00
16060;DHT22;8134;49.552;7.632;2022-07-18T16:22:12;32.50;40.90
16060;DHT22;8134;49.552;7.632;2022-07-18T16:24:38;32.70;41.20
16060;DHT22;8134;49.552;7.632;2022-07-18T16:27:04;32.80;42.70
16060;DHT22;8134;49.552;7.632;2022-07-18T16:29:29;33.00;44.40
16060;DHT22;8134;49.552;7.632;2022-07-18T16:31:55;33.00;41.60
16060;DHT22;8134;49.552;7.632;2022-07-18T16:34:20;33.10;40.50
16060;DHT22;8134;49.552;7.632;2022-07-18T16:36:46;33.00;41.10
16060;DHT22;8134;49.552;7.632;2022-07-18T16:39:11;32.90;40.40
16060;DHT22;8134;49.552;7.632;2022-07-18T16:41:37;33.00;41.90
16060;DHT22;8134;49.552;7.632;2022-07-18T16:44:03;33.00;41.60
16060;DHT22;8134;49.552;7.632;2022-07-18T16:46:28;32.90;42.60
16060;DHT22;8134;49.552;7.632;2022-07-18T16:48:54;33.00;40.40
16060;DHT22;8134;49.552;7.632;2022-07-18T16:51:20;32.90;43.50
16060;DHT22;8134;49.552;7.632;2022-07-18T16:53:45;32.90;43.10
16060;DHT22;8134;49.552;7.632;2022-07-18T16:56:11;32.90;43.10
16060;DHT22;8134;49.552;7.632;2022-07-18T16:58:37;32.80;42.30
16060;DHT22;8134;49.552;7.632;2022-07-18T17:01:03;32.70;43.70
16060;DHT22;8134;49.552;7.632;2022-07-18T17:03:29;32.60;44.60
16060;DHT22;8134;49.552;7.632;2022-07-18T17:14:35;32.70;43.10
16060;DHT22;8134;49.552;7.632;2022-07-18T17:20:21;32.80;44.80
16060;DHT22;8134;49.552;7.632;2022-07-18T17:22:59;32.60;44.20
16060;DHT22;8134;49.552;7.632;2022-07-18T17:25:30;32.50;44.90
16060;DHT22;8134;49.552;7.632;2022-07-18T17:27:59;32.50;46.80
16060;DHT22;8134;49.552;7.632;2022-07-18T17:30:25;32.40;44.90
16060;DHT22;8134;49.552;7.632;2022-07-18T17:32:51;32.30;47.50
16060;DHT22;8134;49.552;7.632;2022-07-18T17:35:16;32.30;46.20
16060;DHT22;8134;49.552;7.632;2022-07-18T17:37:46;32.10;46.40
16060;DHT22;8134;49.552;7.632;2022-07-18T17:40:12;32.10;48.10
16060;DHT22;8134;49.552;7.632;2022-07-18T17:42:38;32.00;48.60
16060;DHT22;8134;49.552;7.632;2022-07-18T17:45:03;31.90;49.70
16060;DHT22;8134;49.552;7.632;2022-07-18T17:47:29;31.70;50.90
16060;DHT22;8134;49.552;7.632;2022-07-18T17:50:03;31.60;50.30
16060;DHT22;8134;49.552;7.632;2022-07-18T17:55:31;31.30;52.40
16060;DHT22;8134;49.552;7.632;2022-07-18T17:57:58;31.20;52.50
16060;DHT22;8134;49.552;7.632;2022-07-18T18:00:23;31.00;53.30
16060;DHT22;8134;49.552;7.632;2022-07-18T18:02:50;30.90;54.40
16060;DHT22;8134;49.552;7.632;2022-07-18T18:05:15;30.80;54.50
16060;DHT22;8134;49.552;7.632;2022-07-18T18:07:42;30.70;55.30
16060;DHT22;8134;49.552;7.632;2022-07-18T18:31:48;29.60;58.30
16060;DHT22;8134;49.552;7.632;2022-07-18T20:13:58;24.20;75.10
16060;DHT22;8134;49.552;7.632;2022-07-18T20:22:27;24.20;74.00
16060;DHT22;8134;49.552;7.632;2022-07-18T20:24:55;24.10;74.00
16060;DHT22;8134;49.552;7.632;2022-07-18T20:27:25;24.10;74.30
16060;DHT22;8134;49.552;7.632;2022-07-18T20:29:55;24.00;73.90
16060;DHT22;8134;49.552;7.632;2022-07-18T20:32:26;24.00;74.90
16060;DHT22;8134;49.552;7.632;2022-07-18T20:34:54;23.90;74.70
16060;DHT22;8134;49.552;7.632;2022-07-18T20:37:22;23.80;75.30
16060;DHT22;8134;49.552;7.632;2022-07-18T20:39:51;23.80;75.40
16060;DHT22;8134;49.552;7.632;2022-07-18T20:42:23;23.80;74.80
16060;DHT22;8134;49.552;7.632;2022-07-18T20:44:52;23.70;74.90
16060;DHT22;8134;49.552;7.632;2022-07-18T20:47:19;23.70;74.40
16060;DHT22;8134;49.552;7.632;2022-07-18T20:49:49;23.60;75.40
16060;DHT22;8134;49.552;7.632;2022-07-18T20:59:16;23.50;75.90
16060;DHT22;8134;49.552;7.632;2022-07-18T21:08:29;23.20;75.80
16060;DHT22;8134;49.552;7.632;2022-07-18T21:30:18;22.70;77.30
16060;DHT22;8134;49.552;7.632;2022-07-18T21:39:20;22.50;76.80
16060;DHT22;8134;49.552;7.632;2022-07-18T21:45:06;22.30;78.10
16060;DHT22;8134;49.552;7.632;2022-07-18T21:47:42;22.30;78.00
16060;DHT22;8134;49.552;7.632;2022-07-18T21:50:08;22.20;77.90
16060;DHT22;8134;49.552;7.632;2022-07-18T21:52:34;22.10;78.10
16060;DHT22;8134;49.552;7.632;2022-07-18T21:54:59;22.10;77.90
16060;DHT22;8134;49.552;7.632;2022-07-18T21:57:26;22.10;78.10
16060;DHT22;8134;49.552;7.632;2022-07-18T21:59:52;22.10;78.40
16060;DHT22;8134;49.552;7.632;2022-07-18T22:02:18;22.00;78.60
16060;DHT22;8134;49.552;7.632;2022-07-18T22:04:43;22.00;78.50
